CJT4 weather

Cumberland House Airport
Cumberland House, Saskatchewan, Canada

Public forecast

Using degrees Celsius for public forecast. Weather courtesy of forecast.io.

Closest aviation weather report (METAR) to Cumberland House Airport

Closest report is The Pas Airport, 42.6 nm (79.0 km) E. Retrieved 2019/12/12 00:00 UTC (30 minutes ago):

CYQD 120000Z AUTO 26010KT 9SM CLR M24/M28 A3024 RMK SLP278

Closest aviation forecast (TAF) to Cumberland House Airport

Closest forecast is The Pas Airport, 42.6 nm (79.0 km) E. Retrieved 2019-12-12 01:39 UTC (0 seconds ago):

TAF CYQD 120038Z 1201/1213 27010KT P6SM SKC BECMG 1201/1203 27005KT RMK FCST BASED ON AUTO OBS NXT FCST BY 120700Z